Time;durP1;ratioP1;P1;durP2;ratioP2;P2;SDS_P1;SDS_P2;PMS_P1;PMS_P2;Temp;Humidity;BMP_temperature;BMP_pressure;BME280_temperature;BME280_humidity;BME280_pressure;Samples;Min_cycle;Max_cycle;Signal;HPM_P1;HPM_P2
2022/02/10 00:21:04;;;;;;;;;;;;;;;;;;4823908;29;20477;-77
2022/02/10 00:23:44;;;;;;;33.92;12.15;;;;;;;;;;4835772;29;19924;-77
2022/02/10 00:34:29;;;;;;;26.30;12.35;;;;;;;;;;4821626;29;20058;-77
2022/02/10 00:37:11;;;;;;;40.85;17.58;;;;;;;;;;4822076;29;20060;-77
2022/02/10 00:42:07;;;;;;;26.73;9.50;;;;;;;;;;4823752;29;20386;-77
2022/02/10 00:44:33;;;;;;;22.88;8.88;;;;;;;;;;4822853;29;20065;-81
2022/02/10 00:46:59;;;;;;;30.38;13.60;;;;;;;;;;4824637;29;20053;-77
2022/02/10 00:49:25;;;;;;;18.98;7.57;;;;;;;;;;4813503;29;20057;-81
2022/02/10 00:51:51;;;;;;;19.83;9.55;;;;;;;;;;4806896;29;20058;-77
2022/02/10 00:54:24;;;;;;;22.80;7.40;;;;;;;;;;4824899;29;20042;-77
2022/02/10 00:56:50;;;;;;;18.08;7.85;;;;;;;;;;4820302;29;20050;-77
2022/02/10 01:31:49;;;;;;;23.63;8.25;;;;;;;;;;4819405;29;20042;-77
2022/02/10 01:34:15;;;;;;;20.27;7.97;;;;;;;;;;4807349;29;20050;-79
2022/02/10 01:36:41;;;;;;;31.90;8.95;;;;;;;;;;4823775;29;20068;-83
2022/02/10 01:39:08;;;;;;;25.48;8.35;;;;;;;;;;4806724;29;20054;-76
2022/02/10 01:42:07;;;;;;;25.08;8.50;;;;;;;;;;4823446;29;20065;-80
2022/02/10 02:03:34;;;;;;;16.23;6.50;;;;;;;;;;4821251;29;20080;-76
2022/02/10 02:06:05;;;;;;;18.55;6.88;;;;;;;;;;4818108;29;20054;-77
2022/02/10 02:08:35;;;;;;;18.80;6.10;;;;;;;;;;4821468;29;20469;-77
2022/02/10 02:11:02;;;;;;;16.42;6.68;;;;;;;;;;4810087;29;20060;-77
2022/02/10 02:13:28;;;;;;;18.00;6.60;;;;;;;;;;4809337;29;20076;-77
2022/02/10 02:15:54;;;;;;;16.40;7.38;;;;;;;;;;4804458;29;20149;-77
2022/02/10 02:18:20;;;;;;;16.08;7.00;;;;;;;;;;4822418;29;20041;-77
2022/02/10 02:20:47;;;;;;;18.58;7.10;;;;;;;;;;4824730;29;20080;-81
2022/02/10 02:23:14;;;;;;;21.40;7.68;;;;;;;;;;4822357;29;20042;-77
2022/02/10 02:25:40;;;;;;;22.60;8.13;;;;;;;;;;4834524;29;20050;-77
2022/02/10 02:28:10;;;;;;;15.30;7.05;;;;;;;;;;4807846;29;20098;-77
2022/02/10 02:30:42;;;;;;;14.57;6.88;;;;;;;;;;4824281;29;20057;-77
2022/02/10 03:05:54;;;;;;;19.60;8.18;;;;;;;;;;4841833;29;20054;-77
2022/02/10 03:08:22;;;;;;;16.02;7.43;;;;;;;;;;4813898;29;20131;-77
2022/02/10 03:13:19;;;;;;;19.77;8.43;;;;;;;;;;4855829;29;20203;-77
2022/02/10 03:18:39;;;;;;;22.50;8.82;;;;;;;;;;4828984;29;20133;-77
2022/02/10 03:21:33;;;;;;;20.73;8.68;;;;;;;;;;4819454;29;20061;-77
2022/02/10 04:15:34;;;;;;;24.80;11.18;;;;;;;;;;4851301;29;20052;-77
2022/02/10 05:21:36;;;;;;;30.30;13.23;;;;;;;;;;4824985;29;20051;-81
2022/02/10 05:34:42;;;;;;;26.13;14.65;;;;;;;;;;4822340;29;20064;-78
2022/02/10 05:37:08;;;;;;;27.95;13.73;;;;;;;;;;4817474;29;20053;-81
2022/02/10 05:39:39;;;;;;;27.00;14.57;;;;;;;;;;4807059;29;20057;-77
2022/02/10 05:42:35;;;;;;;25.73;14.25;;;;;;;;;;4820505;29;20500;-77
2022/02/10 05:47:51;;;;;;;32.20;15.30;;;;;;;;;;4820972;29;20106;-77
2022/02/10 05:57:57;;;;;;;41.17;16.10;;;;;;;;;;4820103;29;20321;-77
2022/02/10 06:55:03;;;;;;;56.72;23.60;;;;;;;;;;4816869;29;20082;-77
2022/02/10 07:10:38;;;;;;;51.75;19.75;;;;;;;;;;4817871;29;20374;-78
2022/02/10 07:16:35;;;;;;;51.40;19.08;;;;;;;;;;4806158;29;20085;-77
2022/02/10 07:48:58;;;;;;;35.85;15.30;;;;;;;;;;4822318;29;20149;-77
2022/02/10 08:58:58;;;;;;;13.15;4.88;;;;;;;;;;4823934;29;20136;-77
2022/02/10 09:04:21;;;;;;;15.63;4.72;;;;;;;;;;4824658;29;20060;-79
2022/02/10 09:07:12;;;;;;;13.00;4.55;;;;;;;;;;4806423;29;20130;-78
2022/02/10 09:18:21;;;;;;;17.23;4.45;;;;;;;;;;4824442;29;20751;-79
2022/02/10 10:03:22;;;;;;;13.57;3.50;;;;;;;;;;4814852;29;20473;-79
2022/02/10 10:05:53;;;;;;;7.82;2.78;;;;;;;;;;4801954;29;20057;-80
2022/02/10 10:08:36;;;;;;;12.13;2.92;;;;;;;;;;4818694;29;20049;-79
2022/02/10 10:17:04;;;;;;;12.48;3.08;;;;;;;;;;4819426;29;20061;-80
2022/02/10 10:19:53;;;;;;;13.18;2.78;;;;;;;;;;4836977;29;20062;-78
2022/02/10 10:50:43;;;;;;;10.00;2.17;;;;;;;;;;4824061;29;20042;-75
2022/02/10 10:55:58;;;;;;;12.98;1.80;;;;;;;;;;4821651;29;20114;-75
2022/02/10 12:29:16;;;;;;;20.95;2.97;;;;;;;;;;4818853;29;19931;-90
2022/02/10 13:28:00;;;;;;;10.07;2.28;;;;;;;;;;4820278;29;20133;-75
2022/02/10 13:31:13;;;;;;;412.80;107.65;;;;;;;;;;4816427;29;20049;-74
2022/02/10 14:14:00;;;;;;;9.75;1.77;;;;;;;;;;4814798;29;20058;-74
2022/02/10 14:16:36;;;;;;;10.00;2.03;;;;;;;;;;4809049;29;20046;-76
2022/02/10 14:20:21;;;;;;;12.25;2.25;;;;;;;;;;4821035;29;20046;-74
2022/02/10 14:22:05;;;;;;;13.80;2.80;;;;;;;;;;4807542;29;20054;-78
2022/02/10 14:27:18;;;;;;;11.55;2.45;;;;;;;;;;4828268;29;20060;-74
2022/02/10 14:29:44;;;;;;;11.18;2.15;;;;;;;;;;4822193;29;20054;-74
2022/02/10 14:32:11;;;;;;;9.48;2.30;;;;;;;;;;4820852;29;20081;-74
2022/02/10 14:34:38;;;;;;;16.23;2.95;;;;;;;;;;4842744;29;20053;-75
2022/02/10 14:40:10;;;;;;;12.05;2.05;;;;;;;;;;4821392;29;20077;-74
2022/02/10 14:43:08;;;;;;;15.60;2.10;;;;;;;;;;4815562;29;20111;-74
2022/02/10 16:17:05;;;;;;;16.08;2.08;;;;;;;;;;4807875;29;20066;-80
2022/02/10 16:19:32;;;;;;;19.73;2.60;;;;;;;;;;4781224;29;20095;-82
2022/02/10 16:22:11;;;;;;;10.82;2.35;;;;;;;;;;4790756;29;20062;-78
2022/02/10 16:25:12;;;;;;;11.38;2.25;;;;;;;;;;4813722;29;20050;-81
2022/02/10 16:27:32;;;;;;;10.70;2.60;;;;;;;;;;4802879;29;20054;-80
2022/02/10 16:30:05;;;;;;;13.60;1.98;;;;;;;;;;4795532;29;20047;-80
2022/02/10 16:32:32;;;;;;;16.85;3.10;;;;;;;;;;4806421;29;20043;-81
2022/02/10 16:35:01;;;;;;;10.15;1.90;;;;;;;;;;4779927;29;20054;-79
2022/02/10 16:37:27;;;;;;;18.75;3.28;;;;;;;;;;4802471;29;20202;-80
2022/02/10 16:39:53;;;;;;;14.55;3.03;;;;;;;;;;4805066;29;20043;-83
2022/02/10 16:42:20;;;;;;;13.32;2.22;;;;;;;;;;4803177;29;20050;-79
2022/02/10 16:44:49;;;;;;;19.60;2.70;;;;;;;;;;4789269;29;20065;-79
2022/02/10 16:47:15;;;;;;;13.02;2.78;;;;;;;;;;4814494;29;20364;-78
2022/02/10 16:49:52;;;;;;;18.13;2.47;;;;;;;;;;4811670;29;20514;-78
2022/02/10 16:52:22;;;;;;;13.05;2.00;;;;;;;;;;4834821;29;20089;-81
2022/02/10 16:54:50;;;;;;;10.20;2.30;;;;;;;;;;4803923;29;20103;-78
2022/02/10 16:57:35;;;;;;;19.75;2.92;;;;;;;;;;4818908;29;20050;-77
2022/02/10 17:19:05;;;;;;;19.08;2.70;;;;;;;;;;4793091;29;20050;-78
2022/02/10 17:32:10;;;;;;;14.82;2.92;;;;;;;;;;4808022;29;20052;-83
2022/02/10 17:42:48;;;;;;;16.98;2.33;;;;;;;;;;4836792;29;20054;-82
2022/02/10 17:53:26;;;;;;;16.48;3.17;;;;;;;;;;4794978;29;20080;-82
2022/02/10 17:55:52;;;;;;;12.23;2.70;;;;;;;;;;4811543;29;20049;-77
2022/02/10 17:58:22;;;;;;;13.60;2.20;;;;;;;;;;4825084;29;20041;-80
2022/02/10 18:00:50;;;;;;;17.38;3.25;;;;;;;;;;4812913;29;20046;-81
2022/02/10 18:03:16;;;;;;;11.27;2.30;;;;;;;;;;4838025;29;20053;-81
2022/02/10 18:06:27;;;;;;;23.48;3.20;;;;;;;;;;4813268;29;20494;-80
2022/02/10 18:08:36;;;;;;;15.23;2.65;;;;;;;;;;4799463;29;20298;-80
2022/02/10 18:16:24;;;;;;;13.35;1.80;;;;;;;;;;4823884;29;20101;-80
2022/02/10 18:18:55;;;;;;;19.42;3.03;;;;;;;;;;4823758;29;20060;-79
2022/02/10 18:29:32;;;;;;;20.58;3.70;;;;;;;;;;4822162;29;20473;-79
2022/02/10 19:10:10;;;;;;;19.67;2.58;;;;;;;;;;4821452;29;20047;-84
2022/02/10 19:12:45;;;;;;;17.58;3.83;;;;;;;;;;4838604;29;20303;-91
2022/02/10 19:15:22;;;;;;;14.88;2.63;;;;;;;;;;4820897;29;20089;-79
2022/02/10 19:17:48;;;;;;;17.10;3.65;;;;;;;;;;4810975;29;20082;-85
2022/02/10 19:20:15;;;;;;;25.15;4.15;;;;;;;;;;4822732;29;20133;-84
2022/02/10 19:22:43;;;;;;;17.52;3.53;;;;;;;;;;4826637;29;20436;-85
2022/02/10 19:25:10;;;;;;;17.63;3.25;;;;;;;;;;4820595;29;20054;-92
2022/02/10 19:27:37;;;;;;;21.15;3.58;;;;;;;;;;4824387;29;20517;-79
2022/02/10 19:30:07;;;;;;;19.05;3.95;;;;;;;;;;4823049;29;20050;-89
2022/02/10 19:32:33;;;;;;;22.02;3.03;;;;;;;;;;4822102;29;20050;-85
2022/02/10 19:34:59;;;;;;;14.13;2.65;;;;;;;;;;4813429;29;20133;-83
2022/02/10 19:37:27;;;;;;;13.63;3.15;;;;;;;;;;4815815;29;20053;-83
2022/02/10 19:39:58;;;;;;;9.48;2.70;;;;;;;;;;4826643;29;20078;-86
2022/02/10 19:42:27;;;;;;;17.38;3.15;;;;;;;;;;4815603;29;20106;-84
2022/02/10 19:44:59;;;;;;;13.77;3.60;;;;;;;;;;4828255;29;20063;-86
2022/02/10 19:47:26;;;;;;;18.25;2.60;;;;;;;;;;4826081;29;20446;-84
2022/02/10 19:49:52;;;;;;;21.23;3.17;;;;;;;;;;4827476;29;20482;-83
2022/02/10 19:52:19;;;;;;;24.38;2.55;;;;;;;;;;4816751;29;20471;-85
2022/02/10 19:54:49;;;;;;;20.20;3.60;;;;;;;;;;4817607;29;20086;-85
2022/02/10 19:57:19;;;;;;;19.65;2.85;;;;;;;;;;4825351;29;20061;-85
2022/02/10 19:59:46;;;;;;;16.60;2.55;;;;;;;;;;4808218;29;20189;-85
2022/02/10 20:02:14;;;;;;;17.52;4.63;;;;;;;;;;4823571;29;20050;-83
2022/02/10 20:04:40;;;;;;;12.38;2.95;;;;;;;;;;4808538;29;20482;-84
2022/02/10 20:07:07;;;;;;;18.40;2.60;;;;;;;;;;4811016;29;20066;-82
2022/02/10 20:09:33;;;;;;;9.45;2.22;;;;;;;;;;4825030;29;20470;-84
2022/02/10 20:11:59;;;;;;;18.15;3.00;;;;;;;;;;4822774;29;20062;-85
2022/02/10 20:14:25;;;;;;;21.13;3.90;;;;;;;;;;4821090;29;20211;-83
2022/02/10 20:16:53;;;;;;;18.75;2.97;;;;;;;;;;4819503;29;20082;-83
2022/02/10 20:19:20;;;;;;;17.73;2.92;;;;;;;;;;4820082;29;20478;-81
2022/02/10 20:21:46;;;;;;;12.27;2.95;;;;;;;;;;4816187;29;20055;-85
2022/02/10 20:24:12;;;;;;;15.40;2.67;;;;;;;;;;4803220;29;20061;-84
2022/02/10 20:26:38;;;;;;;19.67;3.05;;;;;;;;;;4799801;29;20069;-85
2022/02/10 20:29:05;;;;;;;17.35;2.67;;;;;;;;;;4829825;29;20064;-84
2022/02/10 20:31:34;;;;;;;13.93;2.55;;;;;;;;;;4811180;29;20056;-82
2022/02/10 20:34:01;;;;;;;18.55;2.78;;;;;;;;;;4819538;29;20045;-83
2022/02/10 20:36:29;;;;;;;19.73;3.00;;;;;;;;;;4807564;29;20061;-82
2022/02/10 20:38:58;;;;;;;15.98;2.55;;;;;;;;;;4836628;29;20525;-83
2022/02/10 20:41:28;;;;;;;18.10;3.00;;;;;;;;;;4806391;29;20053;-81
2022/02/10 20:43:57;;;;;;;16.05;2.90;;;;;;;;;;4806937;29;20057;-84
2022/02/10 20:46:25;;;;;;;14.10;3.03;;;;;;;;;;4793565;29;20038;-83
2022/02/10 20:48:51;;;;;;;18.45;2.53;;;;;;;;;;4807989;29;20104;-82
2022/02/10 20:51:17;;;;;;;16.40;2.45;;;;;;;;;;4819979;29;20050;-83
2022/02/10 20:53:45;;;;;;;20.13;2.83;;;;;;;;;;4821405;29;20504;-84
2022/02/10 20:56:12;;;;;;;12.23;2.70;;;;;;;;;;4825457;29;20045;-83
2022/02/10 20:58:39;;;;;;;18.00;3.67;;;;;;;;;;4810823;29;20058;-86
2022/02/10 21:01:09;;;;;;;14.95;3.13;;;;;;;;;;4807735;29;20046;-85
2022/02/10 21:03:36;;;;;;;21.50;2.95;;;;;;;;;;4825539;29;20073;-83
2022/02/10 21:06:25;;;;;;;20.67;3.95;;;;;;;;;;4827896;29;20049;-90
2022/02/10 21:09:06;;;;;;;18.33;3.00;;;;;;;;;;4823330;29;20045;-81
2022/02/10 21:11:32;;;;;;;21.75;3.45;;;;;;;;;;4838663;29;20069;-83
2022/02/10 21:13:59;;;;;;;23.10;3.28;;;;;;;;;;4838627;29;20064;-86
2022/02/10 21:16:26;;;;;;;13.98;2.80;;;;;;;;;;4827540;29;20057;-79
2022/02/10 21:18:52;;;;;;;16.33;3.28;;;;;;;;;;4830868;29;20049;-80
2022/02/10 21:21:19;;;;;;;14.45;2.60;;;;;;;;;;4832621;29;20125;-79
2022/02/10 21:24:00;;;;;;;17.60;3.47;;;;;;;;;;4836414;29;20050;-80
2022/02/10 21:26:31;;;;;;;17.05;2.75;;;;;;;;;;4828438;29;20091;-80
2022/02/10 21:29:03;;;;;;;14.43;3.25;;;;;;;;;;4827608;29;20046;-80
2022/02/10 21:31:30;;;;;;;14.45;3.20;;;;;;;;;;4807676;29;20561;-80
2022/02/10 21:34:13;;;;;;;16.80;3.13;;;;;;;;;;4796292;29;20060;-78
2022/02/10 21:36:55;;;;;;;14.73;2.78;;;;;;;;;;4838956;29;20562;-80
2022/02/10 22:20:30;;;;;;;10.20;2.20;;;;;;;;;;4817668;29;20103;-84
2022/02/10 22:23:14;;;;;;;17.15;3.55;;;;;;;;;;4827754;29;20053;-83
2022/02/10 22:25:40;;;;;;;18.65;4.22;;;;;;;;;;4823636;29;20418;-83
2022/02/10 22:31:16;;;;;;;15.70;2.90;;;;;;;;;;4791064;29;20049;-84
2022/02/10 22:33:53;;;;;;;9.95;3.10;;;;;;;;;;4826847;29;20058;-83
2022/02/10 22:36:20;;;;;;;13.93;3.38;;;;;;;;;;4828902;29;20124;-85
2022/02/10 22:38:48;;;;;;;12.43;2.58;;;;;;;;;;4834524;29;20458;-80
2022/02/10 22:41:14;;;;;;;27.83;4.38;;;;;;;;;;4840373;29;20038;-84
2022/02/10 22:43:41;;;;;;;21.45;3.95;;;;;;;;;;4837786;29;20061;-84
2022/02/10 22:46:08;;;;;;;333.87;66.20;;;;;;;;;;4841269;29;20077;-83
2022/02/10 22:48:34;;;;;;;342.08;64.68;;;;;;;;;;4822576;29;20366;-83
2022/02/10 22:51:00;;;;;;;350.25;66.88;;;;;;;;;;4809338;29;20042;-83
2022/02/10 22:53:27;;;;;;;288.40;63.17;;;;;;;;;;4821176;29;20088;-84
2022/02/10 22:55:53;;;;;;;18.80;5.20;;;;;;;;;;4821719;29;20434;-83
2022/02/10 22:58:19;;;;;;;332.60;71.72;;;;;;;;;;4818672;29;20081;-83
2022/02/10 23:00:48;;;;;;;361.67;76.00;;;;;;;;;;4831972;29;20053;-83
2022/02/10 23:03:19;;;;;;;355.08;70.72;;;;;;;;;;4821314;29;20042;-84
2022/02/10 23:05:45;;;;;;;9.25;2.03;;;;;;;;;;4807652;29;20150;-85
2022/02/10 23:08:12;;;;;;;14.43;3.15;;;;;;;;;;4854765;29;20041;-82
2022/02/10 23:10:44;;;;;;;363.20;68.20;;;;;;;;;;4838741;29;20088;-77
2022/02/10 23:13:12;;;;;;;337.63;62.70;;;;;;;;;;4810325;29;20049;-85
2022/02/10 23:15:39;;;;;;;354.53;67.03;;;;;;;;;;4809556;29;20054;-83
2022/02/10 23:18:06;;;;;;;361.73;68.73;;;;;;;;;;4825151;29;20053;-84
2022/02/10 23:20:32;;;;;;;332.17;65.20;;;;;;;;;;4807441;29;20058;-82
2022/02/10 23:22:58;;;;;;;328.27;65.73;;;;;;;;;;4808406;29;20058;-83
2022/02/10 23:25:26;;;;;;;364.17;70.80;;;;;;;;;;4813868;29;20049;-82
2022/02/10 23:27:52;;;;;;;318.03;67.63;;;;;;;;;;4812194;29;20046;-81
2022/02/10 23:30:21;;;;;;;311.90;66.13;;;;;;;;;;4807961;29;20072;-81
2022/02/10 23:32:48;;;;;;;305.87;67.20;;;;;;;;;;4811354;29;20457;-81
2022/02/10 23:35:47;;;;;;;318.90;69.17;;;;;;;;;;4794887;29;20384;-79
2022/02/10 23:38:00;;;;;;;306.63;65.53;;;;;;;;;;4812578;29;20492;-79
2022/02/10 23:40:30;;;;;;;290.87;63.87;;;;;;;;;;4823994;29;20045;-80
2022/02/10 23:42:56;;;;;;;302.67;67.50;;;;;;;;;;4825137;29;20423;-81
2022/02/10 23:45:26;;;;;;;313.77;69.20;;;;;;;;;;4821673;29;20170;-81
2022/02/10 23:47:53;;;;;;;310.00;70.13;;;;;;;;;;4839176;29;20049;-79
2022/02/10 23:50:25;;;;;;;325.37;67.10;;;;;;;;;;4822495;29;20504;-80
2022/02/10 23:52:54;;;;;;;327.27;69.20;;;;;;;;;;4824349;29;20110;-79
2022/02/10 23:55:29;;;;;;;299.10;64.07;;;;;;;;;;4794766;29;20469;-80
2022/02/10 23:58:16;;;;;;;317.10;71.33;;;;;;;;;;4821861;29;20045;-79
